sensor_id;sensor_type;location;lat;lon;timestamp;temperature;humidity
54930;DHT22;40833;53.238;6.576;2022-09-01T00:02:20;13.90;99.90
54930;DHT22;40833;53.238;6.576;2022-09-01T00:04:46;13.90;99.90
54930;DHT22;40833;53.238;6.576;2022-09-01T00:07:13;13.90;99.90
54930;DHT22;40833;53.238;6.576;2022-09-01T00:09:39;13.90;99.90
54930;DHT22;40833;53.238;6.576;2022-09-01T00:12:07;13.80;99.90
54930;DHT22;40833;53.238;6.576;2022-09-01T00:14:36;13.80;99.90
54930;DHT22;40833;53.238;6.576;2022-09-01T00:17:06;13.70;99.90
54930;DHT22;40833;53.238;6.576;2022-09-01T00:19:32;13.70;99.90
54930;DHT22;40833;53.238;6.576;2022-09-01T00:22:00;13.80;99.90
54930;DHT22;40833;53.238;6.576;2022-09-01T00:24:27;13.70;99.90
54930;DHT22;40833;53.238;6.576;2022-09-01T00:26:54;13.70;99.90
54930;DHT22;40833;53.238;6.576;2022-09-01T00:29:20;13.60;99.90
54930;DHT22;40833;53.238;6.576;2022-09-01T00:31:47;13.70;99.90
54930;DHT22;40833;53.238;6.576;2022-09-01T00:34:13;13.50;99.90
54930;DHT22;40833;53.238;6.576;2022-09-01T00:36:40;13.50;99.90
54930;DHT22;40833;53.238;6.576;2022-09-01T00:39:06;13.50;99.90
54930;DHT22;40833;53.238;6.576;2022-09-01T00:41:34;13.50;99.90
54930;DHT22;40833;53.238;6.576;2022-09-01T00:44:03;13.50;99.90
54930;DHT22;40833;53.238;6.576;2022-09-01T00:46:36;13.50;99.90
54930;DHT22;40833;53.238;6.576;2022-09-01T00:49:07;13.50;99.90
54930;DHT22;40833;53.238;6.576;2022-09-01T00:51:35;13.50;99.90
54930;DHT22;40833;53.238;6.576;2022-09-01T00:54:04;13.40;99.90
54930;DHT22;40833;53.238;6.576;2022-09-01T00:56:31;13.40;99.90
54930;DHT22;40833;53.238;6.576;2022-09-01T00:58:59;13.40;99.90
54930;DHT22;40833;53.238;6.576;2022-09-01T01:01:26;14.60;99.90
54930;DHT22;40833;53.238;6.576;2022-09-01T01:03:52;13.60;99.90
54930;DHT22;40833;53.238;6.576;2022-09-01T01:06:17;13.50;99.90
54930;DHT22;40833;53.238;6.576;2022-09-01T01:08:48;13.50;99.90
54930;DHT22;40833;53.238;6.576;2022-09-01T01:11:24;13.60;99.90
54930;DHT22;40833;53.238;6.576;2022-09-01T01:13:53;13.70;99.90
54930;DHT22;40833;53.238;6.576;2022-09-01T01:16:21;13.60;99.90
54930;DHT22;40833;53.238;6.576;2022-09-01T01:18:47;13.60;99.90
54930;DHT22;40833;53.238;6.576;2022-09-01T01:26:46;13.60;99.90
54930;DHT22;40833;53.238;6.576;2022-09-01T01:29:12;13.60;99.90
54930;DHT22;40833;53.238;6.576;2022-09-01T01:31:38;13.60;99.90
54930;DHT22;40833;53.238;6.576;2022-09-01T01:34:04;13.70;99.90
54930;DHT22;40833;53.238;6.576;2022-09-01T01:36:35;13.70;99.90
54930;DHT22;40833;53.238;6.576;2022-09-01T01:39:05;13.70;99.90
54930;DHT22;40833;53.238;6.576;2022-09-01T01:41:33;13.80;99.90
54930;DHT22;40833;53.238;6.576;2022-09-01T01:44:01;13.70;99.90
54930;DHT22;40833;53.238;6.576;2022-09-01T01:46:29;13.70;99.90
54930;DHT22;40833;53.238;6.576;2022-09-01T01:48:55;13.80;99.90
54930;DHT22;40833;53.238;6.576;2022-09-01T01:51:21;13.80;99.90
54930;DHT22;40833;53.238;6.576;2022-09-01T01:53:53;13.70;99.90
54930;DHT22;40833;53.238;6.576;2022-09-01T01:56:21;13.80;99.90
54930;DHT22;40833;53.238;6.576;2022-09-01T01:58:51;11.90;99.90
54930;DHT22;40833;53.238;6.576;2022-09-01T02:01:19;13.90;99.90
54930;DHT22;40833;53.238;6.576;2022-09-01T02:03:46;13.80;99.90
54930;DHT22;40833;53.238;6.576;2022-09-01T02:06:12;13.80;99.90
54930;DHT22;40833;53.238;6.576;2022-09-01T02:08:38;13.80;99.90
54930;DHT22;40833;53.238;6.576;2022-09-01T02:11:06;13.90;99.90
54930;DHT22;40833;53.238;6.576;2022-09-01T02:13:32;13.90;99.90
54930;DHT22;40833;53.238;6.576;2022-09-01T02:16:04;13.90;99.90
54930;DHT22;40833;53.238;6.576;2022-09-01T02:18:37;13.90;99.90
54930;DHT22;40833;53.238;6.576;2022-09-01T02:21:05;13.90;99.90
54930;DHT22;40833;53.238;6.576;2022-09-01T02:23:34;13.90;99.90
54930;DHT22;40833;53.238;6.576;2022-09-01T02:26:00;14.80;99.90
54930;DHT22;40833;53.238;6.576;2022-09-01T02:28:28;13.90;99.90
54930;DHT22;40833;53.238;6.576;2022-09-01T02:30:56;13.90;99.90
54930;DHT22;40833;53.238;6.576;2022-09-01T02:33:24;13.90;99.90
54930;DHT22;40833;53.238;6.576;2022-09-01T02:35:56;13.90;99.90
54930;DHT22;40833;53.238;6.576;2022-09-01T02:38:23;13.80;99.90
54930;DHT22;40833;53.238;6.576;2022-09-01T02:40:57;13.80;99.90
54930;DHT22;40833;53.238;6.576;2022-09-01T02:43:24;13.70;99.90
54930;DHT22;40833;53.238;6.576;2022-09-01T02:45:53;13.70;99.90
54930;DHT22;40833;53.238;6.576;2022-09-01T02:48:35;13.70;99.90
54930;DHT22;40833;53.238;6.576;2022-09-01T02:51:18;13.60;99.90
54930;DHT22;40833;53.238;6.576;2022-09-01T02:53:45;13.50;99.90
54930;DHT22;40833;53.238;6.576;2022-09-01T02:56:14;13.50;99.90
54930;DHT22;40833;53.238;6.576;2022-09-01T02:58:43;13.40;99.90
54930;DHT22;40833;53.238;6.576;2022-09-01T03:01:20;13.40;99.90
54930;DHT22;40833;53.238;6.576;2022-09-01T03:03:50;13.30;99.90
54930;DHT22;40833;53.238;6.576;2022-09-01T03:06:17;13.30;99.90
54930;DHT22;40833;53.238;6.576;2022-09-01T03:08:46;13.20;99.90
54930;DHT22;40833;53.238;6.576;2022-09-01T03:11:12;13.20;99.90
54930;DHT22;40833;53.238;6.576;2022-09-01T03:13:38;13.20;99.90
54930;DHT22;40833;53.238;6.576;2022-09-01T03:16:08;13.10;99.90
54930;DHT22;40833;53.238;6.576;2022-09-01T03:18:35;13.10;99.90
54930;DHT22;40833;53.238;6.576;2022-09-01T03:21:01;13.10;99.90
54930;DHT22;40833;53.238;6.576;2022-09-01T03:23:28;13.10;99.90
54930;DHT22;40833;53.238;6.576;2022-09-01T03:25:56;13.00;99.90
54930;DHT22;40833;53.238;6.576;2022-09-01T03:28:22;13.00;99.90
54930;DHT22;40833;53.238;6.576;2022-09-01T03:30:54;13.10;99.90
54930;DHT22;40833;53.238;6.576;2022-09-01T03:33:21;13.20;99.90
54930;DHT22;40833;53.238;6.576;2022-09-01T03:35:47;12.90;99.90
54930;DHT22;40833;53.238;6.576;2022-09-01T03:38:14;12.90;99.90
54930;DHT22;40833;53.238;6.576;2022-09-01T03:40:45;12.90;99.90
54930;DHT22;40833;53.238;6.576;2022-09-01T03:43:12;12.90;99.90
54930;DHT22;40833;53.238;6.576;2022-09-01T03:45:39;12.80;99.90
54930;DHT22;40833;53.238;6.576;2022-09-01T03:48:07;12.80;99.90
54930;DHT22;40833;53.238;6.576;2022-09-01T03:50:38;12.80;99.90
54930;DHT22;40833;53.238;6.576;2022-09-01T03:53:06;12.80;99.90
54930;DHT22;40833;53.238;6.576;2022-09-01T03:55:34;12.80;99.90
54930;DHT22;40833;53.238;6.576;2022-09-01T03:58:06;13.00;99.90
54930;DHT22;40833;53.238;6.576;2022-09-01T04:00:36;12.70;99.90
54930;DHT22;40833;53.238;6.576;2022-09-01T04:03:04;12.70;99.90
54930;DHT22;40833;53.238;6.576;2022-09-01T04:05:32;12.70;99.90
54930;DHT22;40833;53.238;6.576;2022-09-01T04:08:02;12.60;99.90
54930;DHT22;40833;53.238;6.576;2022-09-01T04:10:34;12.60;99.90
54930;DHT22;40833;53.238;6.576;2022-09-01T04:13:01;12.60;99.90
54930;DHT22;40833;53.238;6.576;2022-09-01T04:15:28;12.50;99.90
54930;DHT22;40833;53.238;6.576;2022-09-01T04:17:54;12.50;99.90
54930;DHT22;40833;53.238;6.576;2022-09-01T04:20:41;12.40;99.90
54930;DHT22;40833;53.238;6.576;2022-09-01T04:23:19;12.40;99.90
54930;DHT22;40833;53.238;6.576;2022-09-01T04:26:03;12.40;99.90
54930;DHT22;40833;53.238;6.576;2022-09-01T04:28:34;12.30;99.90
54930;DHT22;40833;53.238;6.576;2022-09-01T04:31:03;12.30;99.90
54930;DHT22;40833;53.238;6.576;2022-09-01T04:33:35;12.20;99.90
54930;DHT22;40833;53.238;6.576;2022-09-01T04:36:05;12.20;99.90
54930;DHT22;40833;53.238;6.576;2022-09-01T04:38:32;12.20;99.90
54930;DHT22;40833;53.238;6.576;2022-09-01T04:41:04;12.20;99.90
54930;DHT22;40833;53.238;6.576;2022-09-01T04:43:32;12.20;99.90
54930;DHT22;40833;53.238;6.576;2022-09-01T04:45:58;12.20;99.90
54930;DHT22;40833;53.238;6.576;2022-09-01T04:48:24;12.20;99.90
54930;DHT22;40833;53.238;6.576;2022-09-01T04:50:50;12.20;99.90
54930;DHT22;40833;53.238;6.576;2022-09-01T04:53:17;12.20;99.90
54930;DHT22;40833;53.238;6.576;2022-09-01T04:55:45;12.90;99.90
54930;DHT22;40833;53.238;6.576;2022-09-01T04:58:15;12.20;99.90
54930;DHT22;40833;53.238;6.576;2022-09-01T05:00:45;12.20;99.90
54930;DHT22;40833;53.238;6.576;2022-09-01T05:03:13;12.10;99.90
54930;DHT22;40833;53.238;6.576;2022-09-01T05:05:47;12.20;99.90
54930;DHT22;40833;53.238;6.576;2022-09-01T05:08:16;12.30;99.90
54930;DHT22;40833;53.238;6.576;2022-09-01T05:10:47;12.20;99.90
54930;DHT22;40833;53.238;6.576;2022-09-01T05:13:14;12.30;99.90
54930;DHT22;40833;53.238;6.576;2022-09-01T05:15:43;12.20;99.90
54930;DHT22;40833;53.238;6.576;2022-09-01T05:18:17;12.30;99.90
54930;DHT22;40833;53.238;6.576;2022-09-01T05:20:48;12.30;99.90
54930;DHT22;40833;53.238;6.576;2022-09-01T05:23:14;12.20;99.90
54930;DHT22;40833;53.238;6.576;2022-09-01T05:25:46;12.40;99.90
54930;DHT22;40833;53.238;6.576;2022-09-01T05:28:15;12.40;99.90
54930;DHT22;40833;53.238;6.576;2022-09-01T05:30:44;12.40;99.90
54930;DHT22;40833;53.238;6.576;2022-09-01T05:33:11;12.50;99.90
54930;DHT22;40833;53.238;6.576;2022-09-01T05:35:46;12.60;99.90
54930;DHT22;40833;53.238;6.576;2022-09-01T05:38:17;12.60;99.90
54930;DHT22;40833;53.238;6.576;2022-09-01T05:40:43;12.60;99.90
54930;DHT22;40833;53.238;6.576;2022-09-01T05:43:11;12.70;99.90
54930;DHT22;40833;53.238;6.576;2022-09-01T05:45:41;12.70;99.90
54930;DHT22;40833;53.238;6.576;2022-09-01T05:48:11;12.80;99.90
54930;DHT22;40833;53.238;6.576;2022-09-01T05:50:40;12.90;99.90
54930;DHT22;40833;53.238;6.576;2022-09-01T05:53:11;12.90;99.90
54930;DHT22;40833;53.238;6.576;2022-09-01T05:55:46;12.90;99.90
54930;DHT22;40833;53.238;6.576;2022-09-01T05:58:14;13.00;99.90
54930;DHT22;40833;53.238;6.576;2022-09-01T06:00:44;13.00;99.90
54930;DHT22;40833;53.238;6.576;2022-09-01T06:03:14;13.10;99.90
54930;DHT22;40833;53.238;6.576;2022-09-01T06:05:42;13.10;99.90
54930;DHT22;40833;53.238;6.576;2022-09-01T06:08:13;13.10;99.90
54930;DHT22;40833;53.238;6.576;2022-09-01T06:10:40;13.20;99.90
54930;DHT22;40833;53.238;6.576;2022-09-01T06:13:07;13.30;99.90
54930;DHT22;40833;53.238;6.576;2022-09-01T06:15:34;13.30;99.90
54930;DHT22;40833;53.238;6.576;2022-09-01T06:18:04;13.40;99.90
54930;DHT22;40833;53.238;6.576;2022-09-01T06:20:31;13.60;99.90
54930;DHT22;40833;53.238;6.576;2022-09-01T06:22:57;13.70;99.90
54930;DHT22;40833;53.238;6.576;2022-09-01T06:25:23;13.80;99.90
54930;DHT22;40833;53.238;6.576;2022-09-01T06:27:50;13.90;99.90
54930;DHT22;40833;53.238;6.576;2022-09-01T06:30:17;14.00;99.90
54930;DHT22;40833;53.238;6.576;2022-09-01T06:32:48;14.00;99.90
54930;DHT22;40833;53.238;6.576;2022-09-01T06:35:14;14.00;99.90
54930;DHT22;40833;53.238;6.576;2022-09-01T06:37:41;14.00;99.90
54930;DHT22;40833;53.238;6.576;2022-09-01T06:40:12;14.00;99.90
54930;DHT22;40833;53.238;6.576;2022-09-01T06:42:46;14.00;99.90
54930;DHT22;40833;53.238;6.576;2022-09-01T06:45:16;14.00;99.90
54930;DHT22;40833;53.238;6.576;2022-09-01T06:47:44;14.10;99.90
54930;DHT22;40833;53.238;6.576;2022-09-01T06:50:19;14.10;99.90
54930;DHT22;40833;53.238;6.576;2022-09-01T06:52:47;14.20;99.90
54930;DHT22;40833;53.238;6.576;2022-09-01T06:55:15;14.30;99.90
54930;DHT22;40833;53.238;6.576;2022-09-01T06:57:42;14.40;99.90
54930;DHT22;40833;53.238;6.576;2022-09-01T07:00:12;14.60;99.90
54930;DHT22;40833;53.238;6.576;2022-09-01T07:02:46;14.80;99.90
54930;DHT22;40833;53.238;6.576;2022-09-01T07:05:14;14.90;99.90
54930;DHT22;40833;53.238;6.576;2022-09-01T07:07:53;15.10;99.90
54930;DHT22;40833;53.238;6.576;2022-09-01T07:10:24;15.10;99.90
54930;DHT22;40833;53.238;6.576;2022-09-01T07:12:52;15.10;99.90
54930;DHT22;40833;53.238;6.576;2022-09-01T07:15:21;15.30;99.90
54930;DHT22;40833;53.238;6.576;2022-09-01T07:17:49;15.10;99.90
54930;DHT22;40833;53.238;6.576;2022-09-01T07:20:17;15.00;99.90
54930;DHT22;40833;53.238;6.576;2022-09-01T07:27:39;15.30;99.90
54930;DHT22;40833;53.238;6.576;2022-09-01T07:30:06;15.50;99.90
54930;DHT22;40833;53.238;6.576;2022-09-01T07:32:37;15.60;99.90
54930;DHT22;40833;53.238;6.576;2022-09-01T07:35:10;15.80;99.90
54930;DHT22;40833;53.238;6.576;2022-09-01T07:37:36;16.00;99.90
54930;DHT22;40833;53.238;6.576;2022-09-01T07:40:11;16.10;99.90
54930;DHT22;40833;53.238;6.576;2022-09-01T07:42:37;16.20;99.90
54930;DHT22;40833;53.238;6.576;2022-09-01T07:45:07;16.40;99.90
54930;DHT22;40833;53.238;6.576;2022-09-01T07:47:33;16.50;99.90
54930;DHT22;40833;53.238;6.576;2022-09-01T07:50:05;16.70;99.90
54930;DHT22;40833;53.238;6.576;2022-09-01T07:52:34;16.70;99.90
54930;DHT22;40833;53.238;6.576;2022-09-01T07:55:02;16.90;99.90
54930;DHT22;40833;53.238;6.576;2022-09-01T07:57:28;17.00;99.90
54930;DHT22;40833;53.238;6.576;2022-09-01T07:59:53;17.10;99.90
54930;DHT22;40833;53.238;6.576;2022-09-01T08:02:20;17.20;99.90
54930;DHT22;40833;53.238;6.576;2022-09-01T08:04:46;17.20;99.90
54930;DHT22;40833;53.238;6.576;2022-09-01T08:07:13;17.30;99.90
54930;DHT22;40833;53.238;6.576;2022-09-01T08:09:39;17.40;99.90
54930;DHT22;40833;53.238;6.576;2022-09-01T08:12:06;17.50;99.90
54930;DHT22;40833;53.238;6.576;2022-09-01T08:14:31;17.50;99.90
54930;DHT22;40833;53.238;6.576;2022-09-01T08:16:57;17.50;99.90
54930;DHT22;40833;53.238;6.576;2022-09-01T08:19:23;17.50;99.90
54930;DHT22;40833;53.238;6.576;2022-09-01T08:21:49;17.50;99.90
54930;DHT22;40833;53.238;6.576;2022-09-01T08:24:14;17.50;99.90
54930;DHT22;40833;53.238;6.576;2022-09-01T08:26:40;17.50;99.90
54930;DHT22;40833;53.238;6.576;2022-09-01T08:29:06;17.50;99.90
54930;DHT22;40833;53.238;6.576;2022-09-01T08:31:31;17.60;99.90
54930;DHT22;40833;53.238;6.576;2022-09-01T08:33:58;17.70;99.90
54930;DHT22;40833;53.238;6.576;2022-09-01T08:36:24;17.80;99.90
54930;DHT22;40833;53.238;6.576;2022-09-01T08:38:50;17.80;99.90
54930;DHT22;40833;53.238;6.576;2022-09-01T08:46:23;18.00;99.90
54930;DHT22;40833;53.238;6.576;2022-09-01T08:48:54;18.10;99.90
54930;DHT22;40833;53.238;6.576;2022-09-01T08:51:36;18.10;99.90
54930;DHT22;40833;53.238;6.576;2022-09-01T08:56:51;18.20;99.90
54930;DHT22;40833;53.238;6.576;2022-09-01T08:59:19;18.20;99.90
54930;DHT22;40833;53.238;6.576;2022-09-01T09:08:07;18.50;99.90
54930;DHT22;40833;53.238;6.576;2022-09-01T09:13:23;18.60;99.90
54930;DHT22;40833;53.238;6.576;2022-09-01T09:15:58;18.60;99.90
54930;DHT22;40833;53.238;6.576;2022-09-01T09:18:35;18.60;99.90
54930;DHT22;40833;53.238;6.576;2022-09-01T09:21:20;18.70;99.90
54930;DHT22;40833;53.238;6.576;2022-09-01T09:23:53;18.70;99.90
54930;DHT22;40833;53.238;6.576;2022-09-01T09:26:20;18.70;99.90
54930;DHT22;40833;53.238;6.576;2022-09-01T09:28:48;18.70;99.90
54930;DHT22;40833;53.238;6.576;2022-09-01T09:31:43;18.80;99.90
54930;DHT22;40833;53.238;6.576;2022-09-01T09:34:32;18.80;99.90
54930;DHT22;40833;53.238;6.576;2022-09-01T09:40:14;19.00;99.90
54930;DHT22;40833;53.238;6.576;2022-09-01T09:43:02;19.10;99.90
54930;DHT22;40833;53.238;6.576;2022-09-01T09:47:58;19.30;99.90
54930;DHT22;40833;53.238;6.576;2022-09-01T09:50:37;19.40;99.90
54930;DHT22;40833;53.238;6.576;2022-09-01T09:53:30;19.50;99.90
54930;DHT22;40833;53.238;6.576;2022-09-01T09:56:22;19.60;99.90
54930;DHT22;40833;53.238;6.576;2022-09-01T09:58:51;19.70;99.90
54930;DHT22;40833;53.238;6.576;2022-09-01T10:04:01;19.90;99.90
54930;DHT22;40833;53.238;6.576;2022-09-01T10:06:40;20.00;99.90
54930;DHT22;40833;53.238;6.576;2022-09-01T10:11:56;20.20;99.90
54930;DHT22;40833;53.238;6.576;2022-09-01T10:14:44;20.20;99.90
54930;DHT22;40833;53.238;6.576;2022-09-01T10:17:14;20.40;99.90
54930;DHT22;40833;53.238;6.576;2022-09-01T10:19:50;20.40;99.90
54930;DHT22;40833;53.238;6.576;2022-09-01T10:22:19;20.60;99.90
54930;DHT22;40833;53.238;6.576;2022-09-01T10:24:46;20.70;99.90
54930;DHT22;40833;53.238;6.576;2022-09-01T10:27:23;20.70;99.90
54930;DHT22;40833;53.238;6.576;2022-09-01T10:32:27;20.90;99.90
54930;DHT22;40833;53.238;6.576;2022-09-01T10:34:56;21.00;99.90
54930;DHT22;40833;53.238;6.576;2022-09-01T10:37:22;21.00;99.90
54930;DHT22;40833;53.238;6.576;2022-09-01T10:40:14;21.10;99.90
54930;DHT22;40833;53.238;6.576;2022-09-01T10:42:43;21.30;99.90
54930;DHT22;40833;53.238;6.576;2022-09-01T10:45:19;21.40;99.90
54930;DHT22;40833;53.238;6.576;2022-09-01T10:47:52;21.50;99.90
54930;DHT22;40833;53.238;6.576;2022-09-01T10:50:30;21.50;99.90
54930;DHT22;40833;53.238;6.576;2022-09-01T10:53:03;21.40;99.90
54930;DHT22;40833;53.238;6.576;2022-09-01T10:55:42;21.50;99.90
54930;DHT22;40833;53.238;6.576;2022-09-01T10:58:38;21.80;99.90
54930;DHT22;40833;53.238;6.576;2022-09-01T11:01:06;22.00;99.90
54930;DHT22;40833;53.238;6.576;2022-09-01T11:03:35;22.10;99.90
54930;DHT22;40833;53.238;6.576;2022-09-01T11:06:04;22.10;99.90
54930;DHT22;40833;53.238;6.576;2022-09-01T11:11:48;21.90;99.90
54930;DHT22;40833;53.238;6.576;2022-09-01T11:14:22;22.00;99.90
54930;DHT22;40833;53.238;6.576;2022-09-01T11:17:19;22.30;99.90
54930;DHT22;40833;53.238;6.576;2022-09-01T11:25:45;22.30;99.90
54930;DHT22;40833;53.238;6.576;2022-09-01T11:28:34;22.30;99.90
54930;DHT22;40833;53.238;6.576;2022-09-01T11:36:45;22.30;99.90
54930;DHT22;40833;53.238;6.576;2022-09-01T11:44:43;22.50;99.90
54930;DHT22;40833;53.238;6.576;2022-09-01T11:47:21;22.60;99.90
54930;DHT22;40833;53.238;6.576;2022-09-01T11:50:04;22.80;99.90
54930;DHT22;40833;53.238;6.576;2022-09-01T11:52:34;23.00;99.70
54930;DHT22;40833;53.238;6.576;2022-09-01T11:55:02;23.20;99.30
54930;DHT22;40833;53.238;6.576;2022-09-01T11:57:36;23.40;99.40
54930;DHT22;40833;53.238;6.576;2022-09-01T12:00:12;23.60;99.00
54930;DHT22;40833;53.238;6.576;2022-09-01T12:02:44;23.90;98.50
54930;DHT22;40833;53.238;6.576;2022-09-01T12:05:25;24.00;97.90
54930;DHT22;40833;53.238;6.576;2022-09-01T12:07:51;24.10;96.90
54930;DHT22;40833;53.238;6.576;2022-09-01T12:15:27;24.20;96.00
54930;DHT22;40833;53.238;6.576;2022-09-01T12:18:09;24.20;96.40
54930;DHT22;40833;53.238;6.576;2022-09-01T12:20:36;24.20;95.60
54930;DHT22;40833;53.238;6.576;2022-09-01T12:23:23;24.30;96.40
54930;DHT22;40833;53.238;6.576;2022-09-01T12:25:51;24.40;96.40
54930;DHT22;40833;53.238;6.576;2022-09-01T12:28:21;24.60;96.40
54930;DHT22;40833;53.238;6.576;2022-09-01T12:30:48;24.70;95.90
54930;DHT22;40833;53.238;6.576;2022-09-01T12:33:16;24.80;95.60
54930;DHT22;40833;53.238;6.576;2022-09-01T12:35:43;24.80;94.90
54930;DHT22;40833;53.238;6.576;2022-09-01T12:38:21;24.80;94.90
54930;DHT22;40833;53.238;6.576;2022-09-01T12:40:54;25.00;94.80
54930;DHT22;40833;53.238;6.576;2022-09-01T12:43:33;25.00;94.10
54930;DHT22;40833;53.238;6.576;2022-09-01T12:48:36;22.60;93.50
54930;DHT22;40833;53.238;6.576;2022-09-01T12:51:23;25.10;99.90
54930;DHT22;40833;53.238;6.576;2022-09-01T12:53:52;25.30;92.70
54930;DHT22;40833;53.238;6.576;2022-09-01T13:14:49;25.50;96.40
54930;DHT22;40833;53.238;6.576;2022-09-01T13:17:15;25.30;93.90
54930;DHT22;40833;53.238;6.576;2022-09-01T14:27:13;24.70;95.70
54930;DHT22;40833;53.238;6.576;2022-09-01T14:29:39;24.00;92.40
54930;DHT22;40833;53.238;6.576;2022-09-01T14:32:04;24.10;92.50
54930;DHT22;40833;53.238;6.576;2022-09-01T14:34:33;24.60;92.40
54930;DHT22;40833;53.238;6.576;2022-09-01T14:36:58;25.10;92.20
54930;DHT22;40833;53.238;6.576;2022-09-01T14:52:55;25.20;91.40
54930;DHT22;40833;53.238;6.576;2022-09-01T14:55:22;25.30;91.60
54930;DHT22;40833;53.238;6.576;2022-09-01T14:57:49;25.90;91.40
54930;DHT22;40833;53.238;6.576;2022-09-01T15:00:15;26.40;91.10
54930;DHT22;40833;53.238;6.576;2022-09-01T15:05:49;26.90;90.90
54930;DHT22;40833;53.238;6.576;2022-09-01T15:08:15;27.80;90.30
54930;DHT22;40833;53.238;6.576;2022-09-01T15:10:41;28.10;89.40
54930;DHT22;40833;53.238;6.576;2022-09-01T15:25:16;28.00;87.70
54930;DHT22;40833;53.238;6.576;2022-09-01T15:27:42;26.00;88.40
54930;DHT22;40833;53.238;6.576;2022-09-01T15:30:08;26.00;88.00
54930;DHT22;40833;53.238;6.576;2022-09-01T15:32:40;26.10;87.60
54930;DHT22;40833;53.238;6.576;2022-09-01T15:35:07;26.20;87.80
54930;DHT22;40833;53.238;6.576;2022-09-01T15:37:33;26.30;86.00
54930;DHT22;40833;53.238;6.576;2022-09-01T15:39:58;26.20;86.90
54930;DHT22;40833;53.238;6.576;2022-09-01T15:42:24;26.30;86.10
54930;DHT22;40833;53.238;6.576;2022-09-01T15:44:50;26.30;86.00
54930;DHT22;40833;53.238;6.576;2022-09-01T16:14:11;26.40;86.20
54930;DHT22;40833;53.238;6.576;2022-09-01T16:16:54;24.40;86.80
54930;DHT22;40833;53.238;6.576;2022-09-01T16:22:27;25.00;86.90
54930;DHT22;40833;53.238;6.576;2022-09-01T16:24:55;25.10;86.30
54930;DHT22;40833;53.238;6.576;2022-09-01T16:27:42;25.10;84.90
54930;DHT22;40833;53.238;6.576;2022-09-01T16:30:11;25.30;85.10
54930;DHT22;40833;53.238;6.576;2022-09-01T16:32:43;25.40;85.40
54930;DHT22;40833;53.238;6.576;2022-09-01T16:35:08;25.40;85.50
54930;DHT22;40833;53.238;6.576;2022-09-01T16:40:31;25.20;85.70
54930;DHT22;40833;53.238;6.576;2022-09-01T16:43:13;25.20;86.10
54930;DHT22;40833;53.238;6.576;2022-09-01T16:46:10;24.90;86.40
54930;DHT22;40833;53.238;6.576;2022-09-01T16:49:11;24.90;86.60
54930;DHT22;40833;53.238;6.576;2022-09-01T16:52:02;24.90;86.50
54930;DHT22;40833;53.238;6.576;2022-09-01T16:57:55;25.00;86.70
54930;DHT22;40833;53.238;6.576;2022-09-01T17:00:31;25.10;86.90
54930;DHT22;40833;53.238;6.576;2022-09-01T17:03:06;25.00;86.70
54930;DHT22;40833;53.238;6.576;2022-09-01T17:05:46;24.90;86.80
54930;DHT22;40833;53.238;6.576;2022-09-01T17:08:27;24.70;86.40
54930;DHT22;40833;53.238;6.576;2022-09-01T17:11:38;24.50;86.50
54930;DHT22;40833;53.238;6.576;2022-09-01T17:13:58;23.80;98.10
54930;DHT22;40833;53.238;6.576;2022-09-01T17:16:33;23.90;87.50
54930;DHT22;40833;53.238;6.576;2022-09-01T17:19:08;23.70;87.70
54930;DHT22;40833;53.238;6.576;2022-09-01T17:21:45;23.60;87.90
54930;DHT22;40833;53.238;6.576;2022-09-01T17:24:37;23.50;88.90
54930;DHT22;40833;53.238;6.576;2022-09-01T17:27:07;23.50;87.90
54930;DHT22;40833;53.238;6.576;2022-09-01T17:29:47;23.40;88.30
54930;DHT22;40833;53.238;6.576;2022-09-01T17:35:35;22.70;90.90
54930;DHT22;40833;53.238;6.576;2022-09-01T17:41:13;22.80;90.00
54930;DHT22;40833;53.238;6.576;2022-09-01T17:48:53;22.40;90.30
54930;DHT22;40833;53.238;6.576;2022-09-01T17:51:57;22.20;90.40
54930;DHT22;40833;53.238;6.576;2022-09-01T17:54:56;22.10;90.70
54930;DHT22;40833;53.238;6.576;2022-09-01T18:00:23;21.80;91.00
54930;DHT22;40833;53.238;6.576;2022-09-01T18:05:38;21.60;91.50
54930;DHT22;40833;53.238;6.576;2022-09-01T18:08:56;21.50;91.50
54930;DHT22;40833;53.238;6.576;2022-09-01T18:11:18;21.40;91.70
54930;DHT22;40833;53.238;6.576;2022-09-01T18:13:57;21.30;91.80
54930;DHT22;40833;53.238;6.576;2022-09-01T18:16:27;21.20;91.80
54930;DHT22;40833;53.238;6.576;2022-09-01T18:18:58;21.10;91.80
54930;DHT22;40833;53.238;6.576;2022-09-01T18:21:35;21.10;92.10
54930;DHT22;40833;53.238;6.576;2022-09-01T18:26:39;20.90;92.90
54930;DHT22;40833;53.238;6.576;2022-09-01T18:29:05;20.80;93.10
54930;DHT22;40833;53.238;6.576;2022-09-01T18:37:22;20.60;94.40
54930;DHT22;40833;53.238;6.576;2022-09-01T18:42:32;20.40;94.90
54930;DHT22;40833;53.238;6.576;2022-09-01T18:45:21;20.30;94.90
54930;DHT22;40833;53.238;6.576;2022-09-01T18:59:07;19.90;97.30
54930;DHT22;40833;53.238;6.576;2022-09-01T19:01:39;19.80;97.80
54930;DHT22;40833;53.238;6.576;2022-09-01T19:04:30;19.80;98.30
54930;DHT22;40833;53.238;6.576;2022-09-01T19:12:59;19.50;99.90
54930;DHT22;40833;53.238;6.576;2022-09-01T19:18:42;19.20;99.90
54930;DHT22;40833;53.238;6.576;2022-09-01T19:21:24;19.10;99.90
54930;DHT22;40833;53.238;6.576;2022-09-01T19:24:02;19.10;99.90
54930;DHT22;40833;53.238;6.576;2022-09-01T19:26:51;18.90;99.90
54930;DHT22;40833;53.238;6.576;2022-09-01T19:29:47;18.80;99.90
54930;DHT22;40833;53.238;6.576;2022-09-01T19:32:12;18.80;99.90
54930;DHT22;40833;53.238;6.576;2022-09-01T19:34:56;18.70;99.90
54930;DHT22;40833;53.238;6.576;2022-09-01T19:37:22;18.70;99.90
54930;DHT22;40833;53.238;6.576;2022-09-01T19:39:49;18.60;99.90
54930;DHT22;40833;53.238;6.576;2022-09-01T19:48:20;18.40;99.90
54930;DHT22;40833;53.238;6.576;2022-09-01T19:53:57;18.30;99.90
54930;DHT22;40833;53.238;6.576;2022-09-01T19:56:38;18.10;99.90
54930;DHT22;40833;53.238;6.576;2022-09-01T19:59:18;18.10;99.90
54930;DHT22;40833;53.238;6.576;2022-09-01T20:01:59;18.10;99.90
54930;DHT22;40833;53.238;6.576;2022-09-01T20:04:45;18.00;99.90
54930;DHT22;40833;53.238;6.576;2022-09-01T20:10:01;17.90;99.90
54930;DHT22;40833;53.238;6.576;2022-09-01T20:15:39;17.70;99.90
54930;DHT22;40833;53.238;6.576;2022-09-01T20:18:17;17.70;99.90
54930;DHT22;40833;53.238;6.576;2022-09-01T20:20:46;17.70;99.90
54930;DHT22;40833;53.238;6.576;2022-09-01T20:31:26;17.50;99.90
54930;DHT22;40833;53.238;6.576;2022-09-01T20:36:39;17.50;99.90
54930;DHT22;40833;53.238;6.576;2022-09-01T20:42:18;17.30;99.90
54930;DHT22;40833;53.238;6.576;2022-09-01T20:44:57;17.20;99.90
54930;DHT22;40833;53.238;6.576;2022-09-01T20:47:27;17.20;99.90
54930;DHT22;40833;53.238;6.576;2022-09-01T20:49:53;17.20;99.90
54930;DHT22;40833;53.238;6.576;2022-09-01T20:52:31;17.10;99.90
54930;DHT22;40833;53.238;6.576;2022-09-01T20:55:18;17.10;99.90